Time;durP1;ratioP1;P1;durP2;ratioP2;P2;SDS_P1;SDS_P2;PMS_P1;PMS_P2;Temp;Humidity;BMP_temperature;BMP_pressure;BME280_temperature;BME280_humidity;BME280_pressure;Samples;Min_cycle;Max_cycle;Signal;HPM_P1;HPM_P2
2021/12/01 00:00:33;;;;;;;0.50;0.50;;;22.10;72.50;;;;;;6255794;27;82950;-62
2021/12/01 00:03:35;;;;;;;0.50;0.50;;;22.10;72.60;;;;;;6254556;27;85084;-61
2021/12/01 00:06:38;;;;;;;0.70;0.60;;;22.00;72.50;;;;;;6252720;27;84112;-62
2021/12/01 00:09:40;;;;;;;0.60;0.60;;;22.00;72.70;;;;;;6255898;27;82923;-62
2021/12/01 00:12:43;;;;;;;1.75;0.50;;;22.00;72.60;;;;;;6254846;27;84462;-62
2021/12/01 00:15:46;;;;;;;0.68;0.60;;;22.00;72.60;;;;;;6267674;27;84086;-62
2021/12/01 00:18:48;;;;;;;1.10;0.60;;;22.00;72.70;;;;;;6257595;27;84115;-62
2021/12/01 00:21:52;;;;;;;1.02;0.70;;;21.90;72.70;;;;;;6265080;27;82985;-62
2021/12/01 00:24:54;;;;;;;0.82;0.70;;;21.90;72.60;;;;;;6257202;27;83394;-61
2021/12/01 00:27:57;;;;;;;0.55;0.50;;;22.00;72.70;;;;;;6273499;27;82901;-61
2021/12/01 00:31:00;;;;;;;0.50;0.50;;;21.90;72.70;;;;;;6273870;27;84101;-62
2021/12/01 00:34:02;;;;;;;0.60;0.60;;;21.90;72.60;;;;;;6262175;27;85349;-62
2021/12/01 00:37:06;;;;;;;0.50;0.40;;;21.90;72.70;;;;;;6258109;27;84109;-61
2021/12/01 00:40:11;;;;;;;0.60;0.50;;;21.90;72.70;;;;;;6261287;27;84051;-62
2021/12/01 00:43:17;;;;;;;0.40;0.40;;;21.90;72.70;;;;;;6258677;27;84006;-62
2021/12/01 00:46:23;;;;;;;1.08;0.60;;;21.90;72.70;;;;;;6259560;27;84291;-62
2021/12/01 00:49:25;;;;;;;0.70;0.60;;;21.90;72.70;;;;;;6252938;27;84192;-62
2021/12/01 00:52:29;;;;;;;0.85;0.70;;;21.90;72.70;;;;;;6252918;27;84469;-62
2021/12/01 00:55:31;;;;;;;0.55;0.50;;;21.90;72.70;;;;;;6265905;27;83273;-62
2021/12/01 00:58:33;;;;;;;0.75;0.60;;;21.80;72.70;;;;;;6257632;27;83923;-62
2021/12/01 01:01:35;;;;;;;0.70;0.50;;;21.80;72.80;;;;;;6250917;27;82988;-62
2021/12/01 01:04:37;;;;;;;1.85;0.60;;;21.80;72.80;;;;;;6257878;27;83888;-61
2021/12/01 01:07:41;;;;;;;0.73;0.50;;;21.80;72.80;;;;;;6255864;27;83994;-62
2021/12/01 01:20:53;;;;;;;1.15;0.65;;;21.70;72.90;;;;;;6280058;27;81458;-60
2021/12/01 01:23:55;;;;;;;1.65;0.55;;;21.80;73.00;;;;;;6254695;27;82313;-60
2021/12/01 01:26:57;;;;;;;1.02;0.60;;;21.70;73.00;;;;;;6250487;28;82257;-59
2021/12/01 01:29:59;;;;;;;1.10;0.60;;;21.80;73.00;;;;;;6255859;27;82266;-60
2021/12/01 01:33:02;;;;;;;0.50;0.50;;;21.70;72.90;;;;;;6245667;27;82591;-60
2021/12/01 01:36:06;;;;;;;0.77;0.50;;;21.70;72.80;;;;;;6252837;27;81207;-60
2021/12/01 01:39:27;;;;;;;0.93;0.50;;;21.80;72.90;;;;;;6249374;27;82399;-59
2021/12/01 01:42:28;;;;;;;0.50;0.50;;;21.70;72.80;;;;;;6250706;27;82994;-62
2021/12/01 01:45:31;;;;;;;1.05;0.50;;;21.70;72.80;;;;;;6251573;27;82156;-62
2021/12/01 01:48:45;;;;;;;1.17;0.40;;;21.70;73.00;;;;;;6253220;27;82540;-62
2021/12/01 01:51:49;;;;;;;0.57;0.40;;;21.70;73.00;;;;;;6243253;28;82352;-62
2021/12/01 01:54:51;;;;;;;0.50;0.50;;;21.70;73.10;;;;;;6242314;28;82278;-62
2021/12/01 01:57:54;;;;;;;1.40;0.55;;;21.60;73.10;;;;;;6246557;28;82253;-61
2021/12/01 02:01:06;;;;;;;0.50;0.50;;;21.60;73.10;;;;;;6250738;27;81194;-62
2021/12/01 02:04:08;;;;;;;0.60;0.50;;;21.60;73.20;;;;;;6247174;28;82293;-62
2021/12/01 02:07:11;;;;;;;0.95;0.57;;;21.60;73.20;;;;;;6248877;27;82488;-62
2021/12/01 02:10:16;;;;;;;0.57;0.57;;;21.60;73.30;;;;;;6245837;28;82254;-62
2021/12/01 02:13:20;;;;;;;0.93;0.45;;;21.60;73.30;;;;;;6244691;28;82266;-62
2021/12/01 02:16:23;;;;;;;0.45;0.40;;;21.60;73.30;;;;;;6250991;27;82339;-63
2021/12/01 02:19:25;;;;;;;0.80;0.50;;;21.50;73.30;;;;;;6247983;27;82605;-62
2021/12/01 02:22:31;;;;;;;0.70;0.40;;;21.50;73.30;;;;;;6241136;28;81006;-61
2021/12/01 02:25:33;;;;;;;0.70;0.50;;;21.50;73.30;;;;;;6237589;28;82120;-61
2021/12/01 02:28:36;;;;;;;0.40;0.38;;;21.60;73.30;;;;;;6239209;27;80314;-61
2021/12/01 02:31:39;;;;;;;0.50;0.50;;;21.60;73.20;;;;;;6233930;28;82356;-61
2021/12/01 02:34:44;;;;;;;1.20;0.65;;;21.60;73.20;;;;;;6231177;28;82389;-62
2021/12/01 02:37:47;;;;;;;0.52;0.50;;;21.60;73.20;;;;;;6226816;28;82457;-61
2021/12/01 02:40:52;;;;;;;0.55;0.50;;;21.60;73.10;;;;;;6224711;28;82356;-62
2021/12/01 02:43:54;;;;;;;0.98;0.40;;;21.60;73.10;;;;;;6223377;28;81189;-62
2021/12/01 02:46:56;;;;;;;0.40;0.40;;;21.60;73.20;;;;;;6235549;28;82535;-61
2021/12/01 02:49:58;;;;;;;0.68;0.60;;;21.50;73.20;;;;;;6224710;28;82665;-62
2021/12/01 02:53:02;;;;;;;0.63;0.40;;;21.50;73.30;;;;;;6228303;28;81202;-62
2021/12/01 02:56:06;;;;;;;1.30;0.60;;;21.50;73.30;;;;;;6228333;28;81198;-61
2021/12/01 02:59:08;;;;;;;1.02;0.50;;;21.50;73.30;;;;;;6225846;28;82320;-61
2021/12/01 03:02:11;;;;;;;0.95;0.50;;;21.40;73.30;;;;;;6231885;28;82333;-62
2021/12/01 03:05:15;;;;;;;0.50;0.50;;;21.40;73.40;;;;;;6233915;28;81157;-61
2021/12/01 03:08:21;;;;;;;0.63;0.52;;;21.40;73.50;;;;;;6223999;28;81246;-61
2021/12/01 03:11:24;;;;;;;0.50;0.50;;;21.40;73.50;;;;;;6218761;28;82301;-62
2021/12/01 03:14:26;;;;;;;0.50;0.50;;;21.40;73.50;;;;;;6224236;28;82311;-61
2021/12/01 03:17:28;;;;;;;1.25;0.43;;;21.40;73.50;;;;;;6227069;28;82033;-61
2021/12/01 03:20:30;;;;;;;0.95;0.50;;;21.40;73.50;;;;;;6220037;28;82372;-61
2021/12/01 03:23:34;;;;;;;0.60;0.60;;;21.40;73.50;;;;;;6226613;28;82366;-61
2021/12/01 03:26:56;;;;;;;0.40;0.32;;;21.40;73.40;;;;;;6235005;28;82089;-62
2021/12/01 03:29:57;;;;;;;0.70;0.47;;;21.40;73.30;;;;;;6222526;28;82342;-62
2021/12/01 03:33:00;;;;;;;0.47;0.40;;;21.50;73.30;;;;;;6221506;28;82263;-61
2021/12/01 03:36:02;;;;;;;0.60;0.60;;;21.50;73.30;;;;;;6222659;28;82335;-62
2021/12/01 03:39:05;;;;;;;0.75;0.75;;;21.50;73.20;;;;;;6222688;28;82430;-61
2021/12/01 03:42:07;;;;;;;0.55;0.55;;;21.40;73.20;;;;;;6233855;28;82706;-61
2021/12/01 03:45:11;;;;;;;0.70;0.55;;;21.40;73.30;;;;;;6224171;28;82315;-61
2021/12/01 03:48:13;;;;;;;1.67;0.60;;;21.40;73.30;;;;;;6231864;28;82608;-61
2021/12/01 03:51:15;;;;;;;1.05;0.50;;;21.40;73.40;;;;;;6230192;28;82020;-62
2021/12/01 03:54:18;;;;;;;0.60;0.52;;;21.30;73.40;;;;;;6225779;28;83293;-61
2021/12/01 03:57:20;;;;;;;0.88;0.55;;;21.30;73.40;;;;;;6235504;28;82318;-62
2021/12/01 04:00:22;;;;;;;0.98;0.50;;;21.30;73.60;;;;;;6217727;28;83757;-62
2021/12/01 04:03:24;;;;;;;0.47;0.45;;;21.30;73.50;;;;;;6226735;28;82273;-61
2021/12/01 04:06:27;;;;;;;0.82;0.40;;;21.30;73.60;;;;;;6225355;28;82482;-62
2021/12/01 04:09:32;;;;;;;0.50;0.50;;;21.30;73.60;;;;;;6231267;28;82785;-62
2021/12/01 04:12:35;;;;;;;1.23;0.52;;;21.30;73.60;;;;;;6216985;28;82303;-61
2021/12/01 04:15:37;;;;;;;0.63;0.40;;;21.30;73.60;;;;;;6230259;28;82599;-61
2021/12/01 04:18:39;;;;;;;0.60;0.60;;;21.30;73.60;;;;;;6223720;28;82368;-61
2021/12/01 04:21:42;;;;;;;0.55;0.32;;;21.30;73.50;;;;;;6218029;28;82371;-61
2021/12/01 04:24:45;;;;;;;0.52;0.52;;;21.30;73.40;;;;;;6222789;28;81235;-62
2021/12/01 04:27:47;;;;;;;0.98;0.40;;;21.30;73.40;;;;;;6226321;28;82310;-61
2021/12/01 04:30:49;;;;;;;0.60;0.50;;;21.30;73.40;;;;;;6230513;28;81700;-62
2021/12/01 04:33:52;;;;;;;0.38;0.38;;;21.30;73.40;;;;;;6230598;28;82714;-62
2021/12/01 04:36:54;;;;;;;0.40;0.40;;;21.30;73.30;;;;;;6220811;28;82373;-62
2021/12/01 04:39:57;;;;;;;0.52;0.40;;;21.30;73.30;;;;;;6234936;28;81270;-61
2021/12/01 04:43:00;;;;;;;0.50;0.50;;;21.40;73.30;;;;;;6220306;28;82356;-62
2021/12/01 04:46:02;;;;;;;0.40;0.40;;;21.40;73.30;;;;;;6221746;28;82430;-61
2021/12/01 04:49:04;;;;;;;1.17;0.60;;;21.40;73.20;;;;;;6228506;28;81626;-61
2021/12/01 04:52:08;;;;;;;0.50;0.50;;;21.40;73.20;;;;;;6219070;28;82452;-62
2021/12/01 04:55:12;;;;;;;0.40;0.40;;;21.40;73.10;;;;;;6232493;28;82630;-61
2021/12/01 04:58:14;;;;;;;0.40;0.40;;;21.50;73.20;;;;;;6229519;28;82322;-61
2021/12/01 05:01:16;;;;;;;0.95;0.57;;;21.50;73.10;;;;;;6221006;28;81364;-62
2021/12/01 05:04:18;;;;;;;0.32;0.32;;;21.50;73.10;;;;;;6223904;28;82279;-62
2021/12/01 05:07:20;;;;;;;0.50;0.50;;;21.50;73.00;;;;;;6230736;28;82434;-62
2021/12/01 05:10:24;;;;;;;1.00;0.50;;;21.50;73.00;;;;;;6222520;28;82281;-62
2021/12/01 05:13:26;;;;;;;0.40;0.40;;;21.60;73.00;;;;;;6220682;28;82630;-61
2021/12/01 05:16:46;;;;;;;1.52;0.52;;;21.60;73.00;;;;;;6229720;28;82309;-61
2021/12/01 05:19:48;;;;;;;1.05;0.85;;;21.70;73.00;;;;;;6217054;28;81210;-62
2021/12/01 05:22:50;;;;;;;0.60;0.40;;;21.60;72.80;;;;;;6224621;28;82256;-62
2021/12/01 05:25:54;;;;;;;1.02;0.70;;;21.70;72.80;;;;;;6217615;28;82688;-61
2021/12/01 05:28:56;;;;;;;0.70;0.70;;;21.70;73.50;;;;;;6230355;28;82597;-61
2021/12/01 05:31:59;;;;;;;0.90;0.75;;;21.80;75.60;;;;;;6227788;28;82298;-61
2021/12/01 05:35:01;;;;;;;1.77;0.50;;;21.90;74.10;;;;;;6229866;28;81497;-61
2021/12/01 05:38:04;;;;;;;0.40;0.40;;;21.90;73.50;;;;;;6224458;28;82348;-61
2021/12/01 05:41:07;;;;;;;0.68;0.43;;;22.00;73.30;;;;;;6222985;28;82328;-61
2021/12/01 05:44:09;;;;;;;0.45;0.40;;;22.00;73.10;;;;;;6232191;28;82366;-61
2021/12/01 05:47:11;;;;;;;0.52;0.40;;;22.00;73.10;;;;;;6227739;28;81209;-61
2021/12/01 05:50:14;;;;;;;0.70;0.43;;;22.00;72.90;;;;;;6232241;28;82361;-61
2021/12/01 05:53:16;;;;;;;0.50;0.50;;;22.00;72.90;;;;;;6229050;28;82320;-61
2021/12/01 05:56:20;;;;;;;0.63;0.45;;;22.00;72.90;;;;;;6223929;28;82323;-59
2021/12/01 05:59:22;;;;;;;1.17;0.70;;;22.00;73.40;;;;;;6229720;28;81194;-60
2021/12/01 06:02:24;;;;;;;1.15;0.50;;;22.00;73.70;;;;;;6213778;28;81246;-60
2021/12/01 06:05:27;;;;;;;0.70;0.50;;;22.00;73.50;;;;;;6227568;28;82113;-60
2021/12/01 06:08:29;;;;;;;1.05;0.50;;;22.00;73.50;;;;;;6230442;28;82510;-60
2021/12/01 06:11:32;;;;;;;2.47;0.68;;;22.00;73.40;;;;;;6228208;28;82432;-60
2021/12/01 06:14:36;;;;;;;1.80;0.82;;;22.00;73.30;;;;;;6233592;28;81167;-60
2021/12/01 06:17:38;;;;;;;0.57;0.50;;;22.00;73.30;;;;;;6227815;28;82573;-60
2021/12/01 06:20:41;;;;;;;1.00;0.68;;;22.00;73.20;;;;;;6231434;28;82427;-60
2021/12/01 06:23:43;;;;;;;1.02;0.60;;;22.00;73.30;;;;;;6222920;28;82386;-60
2021/12/01 06:26:46;;;;;;;0.70;0.68;;;22.10;73.20;;;;;;6232216;28;84052;-60
2021/12/01 06:29:48;;;;;;;1.73;0.70;;;22.10;73.20;;;;;;6236024;28;83229;-60
2021/12/01 06:32:50;;;;;;;1.08;0.60;;;22.10;73.20;;;;;;6219338;28;84309;-60
2021/12/01 06:35:52;;;;;;;1.73;0.63;;;22.10;73.20;;;;;;6224828;28;84332;-60
2021/12/01 06:38:54;;;;;;;1.27;0.98;;;22.10;73.20;;;;;;6234029;28;85117;-60
2021/12/01 06:41:58;;;;;;;1.23;0.70;;;22.10;73.20;;;;;;6227690;28;83816;-60
2021/12/01 06:45:00;;;;;;;1.25;0.77;;;22.10;73.00;;;;;;6219031;28;84186;-60
2021/12/01 06:48:02;;;;;;;1.63;0.80;;;22.10;73.00;;;;;;6226168;28;84207;-59
2021/12/01 06:51:04;;;;;;;0.57;0.55;;;22.10;73.00;;;;;;6235487;28;83684;-60
2021/12/01 06:54:06;;;;;;;0.93;0.73;;;22.10;73.00;;;;;;6230279;28;83345;-61
2021/12/01 06:57:09;;;;;;;0.73;0.60;;;22.10;73.00;;;;;;6221235;28;84045;-60
2021/12/01 07:00:14;;;;;;;1.20;0.70;;;22.10;72.90;;;;;;6222956;28;83591;-60
2021/12/01 07:03:16;;;;;;;0.60;0.57;;;22.20;73.00;;;;;;6221715;28;84047;-60
2021/12/01 07:06:18;;;;;;;1.38;0.60;;;22.20;73.00;;;;;;6232563;28;84159;-60
2021/12/01 07:09:23;;;;;;;1.20;0.70;;;22.20;72.90;;;;;;6226845;28;85263;-60
2021/12/01 07:12:27;;;;;;;1.15;0.82;;;22.20;72.90;;;;;;6223716;28;83692;-59
2021/12/01 07:15:29;;;;;;;1.13;0.80;;;22.20;72.90;;;;;;6223560;28;84112;-60
2021/12/01 07:18:31;;;;;;;0.77;0.70;;;22.20;72.80;;;;;;6225208;28;84065;-60
2021/12/01 07:21:35;;;;;;;1.30;0.80;;;22.20;72.80;;;;;;6232452;28;82791;-60
2021/12/01 07:24:37;;;;;;;1.50;0.80;;;22.20;72.80;;;;;;6229814;28;84259;-59
2021/12/01 07:27:40;;;;;;;0.88;0.82;;;22.20;72.80;;;;;;6229545;28;84094;-60
2021/12/01 07:30:43;;;;;;;1.85;1.02;;;22.20;72.80;;;;;;6232244;28;82929;-59
2021/12/01 07:33:45;;;;;;;1.45;0.90;;;22.20;72.80;;;;;;6231241;28;84426;-60
2021/12/01 07:36:47;;;;;;;1.02;0.90;;;22.20;72.80;;;;;;6233449;28;83991;-60
2021/12/01 07:39:50;;;;;;;0.98;0.80;;;22.20;72.80;;;;;;6212417;28;85042;-60
2021/12/01 07:42:53;;;;;;;1.85;1.05;;;22.30;72.80;;;;;;6214726;28;82918;-60
2021/12/01 07:45:55;;;;;;;1.38;0.75;;;22.30;72.70;;;;;;6228148;28;84353;-60
2021/12/01 07:48:57;;;;;;;1.35;0.90;;;22.30;72.70;;;;;;6213516;28;83063;-60
2021/12/01 07:51:59;;;;;;;0.98;0.80;;;22.30;72.70;;;;;;6211238;28;84003;-60
2021/12/01 07:55:02;;;;;;;1.15;1.00;;;22.30;72.70;;;;;;6223482;28;83986;-60
2021/12/01 07:58:05;;;;;;;1.05;0.80;;;22.30;72.70;;;;;;6235963;28;84336;-60
2021/12/01 08:01:07;;;;;;;1.45;0.90;;;22.30;72.70;;;;;;6234263;28;83528;-60
2021/12/01 08:04:09;;;;;;;1.58;0.85;;;22.30;72.70;;;;;;6219072;28;82748;-60
2021/12/01 08:07:11;;;;;;;1.33;0.95;;;22.30;72.70;;;;;;6220457;28;84048;-60
2021/12/01 08:10:13;;;;;;;1.33;0.90;;;22.20;72.60;;;;;;6231784;28;84969;-60
2021/12/01 08:13:17;;;;;;;1.08;0.85;;;22.30;73.50;;;;;;6232076;28;83983;-60
2021/12/01 08:16:19;;;;;;;1.20;0.82;;;22.30;72.60;;;;;;6233942;28;84058;-59
2021/12/01 08:19:22;;;;;;;1.50;0.73;;;22.30;72.60;;;;;;6220749;28;84122;-60
2021/12/01 08:22:24;;;;;;;1.73;0.90;;;22.30;72.50;;;;;;6229003;28;84040;-60
2021/12/01 08:25:26;;;;;;;1.48;1.00;;;22.40;72.50;;;;;;6227844;28;84331;-60
2021/12/01 08:28:29;;;;;;;1.42;1.10;;;22.40;72.50;;;;;;6222862;28;82903;-59
2021/12/01 08:31:31;;;;;;;1.15;0.95;;;22.40;72.50;;;;;;6221052;28;83459;-60
2021/12/01 08:34:33;;;;;;;0.85;0.82;;;22.40;72.60;;;;;;6218267;28;84207;-60
2021/12/01 08:37:36;;;;;;;1.17;0.80;;;22.40;72.60;;;;;;6228085;28;83734;-60
2021/12/01 08:40:58;;;;;;;1.05;0.90;;;22.40;72.50;;;;;;6220706;28;84927;-60
2021/12/01 08:44:01;;;;;;;1.33;1.00;;;22.40;72.60;;;;;;6224267;28;84029;-60
2021/12/01 08:47:04;;;;;;;1.05;0.88;;;22.40;72.50;;;;;;6218582;28;84517;-60
2021/12/01 08:50:08;;;;;;;0.93;0.80;;;22.40;72.50;;;;;;6223239;28;83900;-60
2021/12/01 08:53:10;;;;;;;1.00;0.90;;;22.40;72.50;;;;;;6218368;28;84063;-60
2021/12/01 08:56:12;;;;;;;0.90;0.80;;;22.40;72.50;;;;;;6214268;28;84069;-60
2021/12/01 08:59:16;;;;;;;1.52;1.02;;;22.40;72.50;;;;;;6223873;28;84039;-59
2021/12/01 09:02:18;;;;;;;0.85;0.80;;;22.40;72.50;;;;;;6221037;28;82084;-59
2021/12/01 09:05:20;;;;;;;0.90;0.80;;;22.40;72.50;;;;;;6233042;28;83189;-60
2021/12/01 09:08:24;;;;;;;1.10;0.82;;;22.40;72.50;;;;;;6217404;28;84060;-60
2021/12/01 09:11:26;;;;;;;1.10;1.00;;;22.40;72.50;;;;;;6218090;28;85143;-60
2021/12/01 09:14:51;;;;;;;1.05;0.75;;;22.40;72.50;;;;;;6220401;28;83401;-61
2021/12/01 09:17:53;;;;;;;1.17;0.98;;;22.40;72.50;;;;;;6220909;28;84419;-60
2021/12/01 09:20:55;;;;;;;1.33;1.00;;;22.40;72.50;;;;;;6226676;28;84033;-60
2021/12/01 09:23:57;;;;;;;1.92;0.90;;;22.40;72.40;;;;;;6227787;28;82732;-60
2021/12/01 09:27:00;;;;;;;1.30;1.08;;;22.50;72.50;;;;;;6208591;28;84380;-60
2021/12/01 09:30:04;;;;;;;1.25;0.98;;;22.50;72.50;;;;;;6222394;28;84018;-60
2021/12/01 09:33:06;;;;;;;1.30;0.98;;;22.50;72.50;;;;;;6229243;28;83632;-60
2021/12/01 09:36:09;;;;;;;1.40;0.95;;;22.50;72.50;;;;;;6225568;28;83996;-60
2021/12/01 09:39:11;;;;;;;1.13;0.80;;;22.50;72.50;;;;;;6211504;28;84369;-60
2021/12/01 09:42:13;;;;;;;1.25;0.90;;;22.50;72.50;;;;;;6223295;28;83170;-60
2021/12/01 09:45:20;;;;;;;1.30;0.90;;;22.50;72.50;;;;;;6219763;28;84628;-60
2021/12/01 09:48:22;;;;;;;2.08;1.10;;;22.40;72.40;;;;;;6232296;28;84103;-60
2021/12/01 09:51:24;;;;;;;2.03;1.10;;;22.50;72.50;;;;;;6220761;28;83990;-60
2021/12/01 09:54:26;;;;;;;1.20;0.90;;;22.50;72.50;;;;;;6237028;28;82927;-60
2021/12/01 09:57:28;;;;;;;0.85;0.85;;;22.40;72.40;;;;;;6234719;28;83972;-60
2021/12/01 10:00:34;;;;;;;1.13;0.90;;;22.50;72.50;;;;;;6234635;28;82835;-60
2021/12/01 10:03:36;;;;;;;1.85;1.00;;;22.50;72.50;;;;;;6231273;28;83589;-60
2021/12/01 10:06:38;;;;;;;1.23;0.90;;;22.50;72.50;;;;;;6223346;28;84028;-60
2021/12/01 10:09:43;;;;;;;1.15;0.98;;;22.50;72.40;;;;;;6228615;28;83984;-60
2021/12/01 10:12:47;;;;;;;1.33;1.00;;;22.50;72.50;;;;;;6223500;28;84508;-60
2021/12/01 10:15:53;;;;;;;0.85;0.85;;;22.50;72.40;;;;;;6225773;28;84114;-59
2021/12/01 10:18:56;;;;;;;1.10;1.00;;;22.50;72.40;;;;;;6226490;28;84191;-60
2021/12/01 10:21:59;;;;;;;0.95;0.88;;;22.50;72.40;;;;;;6230677;28;84183;-59
2021/12/01 10:25:02;;;;;;;1.10;0.95;;;22.60;72.50;;;;;;6235824;28;84537;-60
2021/12/01 10:28:04;;;;;;;1.10;1.00;;;22.50;72.50;;;;;;6216956;28;84104;-59
2021/12/01 10:31:08;;;;;;;1.00;0.90;;;22.60;72.50;;;;;;6230217;28;84006;-61
2021/12/01 10:34:19;;;;;;;1.55;1.25;;;22.60;72.50;;;;;;6234788;28;83356;-60
2021/12/01 10:37:25;;;;;;;1.73;1.10;;;22.60;72.50;;;;;;6233414;28;84926;-61
2021/12/01 10:40:28;;;;;;;1.00;0.90;;;22.60;72.50;;;;;;6213898;28;84008;-60
2021/12/01 10:43:45;;;;;;;1.42;0.90;;;22.60;72.50;;;;;;6230007;28;84777;-60
2021/12/01 10:46:50;;;;;;;1.33;0.98;;;22.60;72.40;;;;;;6234131;28;83028;-60
2021/12/01 10:49:52;;;;;;;1.92;1.52;;;22.60;72.40;;;;;;6230995;28;84787;-60
2021/12/01 10:53:02;;;;;;;1.42;0.98;;;22.60;72.40;;;;;;6211868;28;84548;-60
2021/12/01 10:56:23;;;;;;;1.50;1.08;;;22.60;72.40;;;;;;6221252;28;84478;-60
2021/12/01 10:59:25;;;;;;;1.38;1.23;;;22.60;72.40;;;;;;6229081;28;82910;-60
2021/12/01 11:02:35;;;;;;;1.05;0.90;;;22.70;72.50;;;;;;6222876;28;84190;-60
2021/12/01 11:05:38;;;;;;;1.33;1.00;;;22.60;72.50;;;;;;6217552;28;83238;-60
2021/12/01 11:08:42;;;;;;;1.17;1.00;;;22.70;72.50;;;;;;6226858;28;84045;-61
2021/12/01 11:11:45;;;;;;;1.00;0.82;;;22.60;72.40;;;;;;6223618;28;84514;-60
2021/12/01 11:14:47;;;;;;;2.13;1.00;;;22.70;72.50;;;;;;6226508;28;83849;-60
2021/12/01 11:17:52;;;;;;;1.08;0.90;;;22.70;72.50;;;;;;6225583;28;82815;-59
2021/12/01 11:20:54;;;;;;;0.90;0.90;;;22.60;72.50;;;;;;6227113;28;82936;-60
2021/12/01 11:23:59;;;;;;;1.70;1.15;;;22.60;72.40;;;;;;6220860;28;84053;-60
2021/12/01 11:27:03;;;;;;;1.10;0.98;;;22.70;72.50;;;;;;6224679;28;83628;-60
2021/12/01 11:30:23;;;;;;;1.10;1.00;;;22.60;72.50;;;;;;6233048;28;83997;-61
2021/12/01 11:33:28;;;;;;;1.27;1.00;;;22.60;72.50;;;;;;6226468;28;82889;-60
2021/12/01 11:36:32;;;;;;;1.00;0.90;;;22.60;72.50;;;;;;6225645;28;83284;-60
2021/12/01 11:39:34;;;;;;;1.10;1.00;;;22.60;72.70;;;;;;6224939;28;83878;-60
2021/12/01 11:42:36;;;;;;;1.00;0.90;;;22.60;72.70;;;;;;6234237;28;82740;-60
2021/12/01 11:45:40;;;;;;;0.80;0.80;;;22.60;72.70;;;;;;6229512;28;85406;-60
2021/12/01 11:48:47;;;;;;;1.20;1.00;;;22.50;72.70;;;;;;6220659;28;82871;-60
2021/12/01 11:51:56;;;;;;;1.10;0.90;;;22.50;72.70;;;;;;6232855;28;84000;-60
2021/12/01 11:54:58;;;;;;;1.40;1.20;;;22.50;72.80;;;;;;6220037;28;84070;-60
2021/12/01 11:58:00;;;;;;;1.38;1.13;;;22.50;72.80;;;;;;6227740;28;84177;-60
2021/12/01 12:01:02;;;;;;;0.95;0.88;;;22.50;72.80;;;;;;6228201;28;84176;-60
2021/12/01 12:04:33;;;;;;;1.05;0.90;;;22.50;72.90;;;;;;6210868;28;82970;-60
2021/12/01 12:07:37;;;;;;;1.30;1.10;;;22.50;72.90;;;;;;6219416;28;82309;-60
2021/12/01 12:10:39;;;;;;;0.75;0.75;;;22.50;72.80;;;;;;6229506;28;84041;-60
2021/12/01 12:13:59;;;;;;;1.10;1.00;;;22.60;72.90;;;;;;6225810;28;84289;-60
2021/12/01 12:17:05;;;;;;;1.00;0.90;;;22.60;72.90;;;;;;6226117;28;85102;-60
2021/12/01 12:20:22;;;;;;;1.13;1.02;;;22.60;73.00;;;;;;6219260;28;84090;-60
2021/12/01 12:23:35;;;;;;;1.20;1.00;;;22.50;72.90;;;;;;6227333;28;82795;-60
2021/12/01 12:26:41;;;;;;;1.50;0.80;;;22.60;72.90;;;;;;6222684;28;84177;-60
2021/12/01 12:29:46;;;;;;;0.80;0.80;;;22.60;72.90;;;;;;6221579;28;83955;-60
2021/12/01 12:32:48;;;;;;;1.15;1.00;;;22.60;73.80;;;;;;6228606;28;84057;-60
2021/12/01 12:35:52;;;;;;;1.00;0.90;;;22.60;72.90;;;;;;6225058;28;84034;-60
2021/12/01 12:39:04;;;;;;;1.23;1.13;;;22.60;72.80;;;;;;6213169;28;83689;-60
2021/12/01 12:42:11;;;;;;;0.90;0.85;;;22.70;72.90;;;;;;6222216;28;83677;-61
2021/12/01 12:45:26;;;;;;;0.80;0.80;;;22.60;72.80;;;;;;6211517;28;84007;-60
2021/12/01 12:48:30;;;;;;;1.00;0.90;;;22.70;72.90;;;;;;6212283;28;85166;-60
2021/12/01 12:51:38;;;;;;;1.05;0.90;;;22.70;72.90;;;;;;6218368;28;84736;-60
2021/12/01 12:54:40;;;;;;;1.10;1.00;;;22.70;72.80;;;;;;6227581;28;84029;-60
2021/12/01 12:57:56;;;;;;;1.63;0.98;;;22.70;72.90;;;;;;6230457;28;83966;-60
2021/12/01 13:00:59;;;;;;;0.80;0.80;;;22.70;72.80;;;;;;6227061;28;84276;-60
2021/12/01 13:04:06;;;;;;;0.80;0.77;;;22.70;72.80;;;;;;6217468;28;84086;-60
2021/12/01 13:07:41;;;;;;;1.02;0.93;;;22.70;72.90;;;;;;6212983;28;84013;-60
2021/12/01 13:10:43;;;;;;;1.48;1.23;;;22.70;72.90;;;;;;6224445;28;83197;-61
2021/12/01 13:13:48;;;;;;;1.25;1.10;;;22.70;72.80;;;;;;6228357;28;84131;-61
2021/12/01 13:16:59;;;;;;;0.80;0.75;;;22.70;72.90;;;;;;6221506;28;84062;-60
2021/12/01 13:20:02;;;;;;;1.00;0.90;;;22.70;72.80;;;;;;6228913;28;84186;-60
2021/12/01 13:23:19;;;;;;;1.52;0.98;;;22.70;72.90;;;;;;6216718;28;83757;-60
2021/12/01 13:26:22;;;;;;;1.00;0.90;;;22.70;72.80;;;;;;6225158;28;84134;-60
2021/12/01 13:29:24;;;;;;;1.00;0.82;;;22.70;72.80;;;;;;6228126;28;83890;-61
2021/12/01 13:32:26;;;;;;;0.93;0.80;;;22.70;72.80;;;;;;6220015;28;84106;-60
2021/12/01 13:35:30;;;;;;;0.88;0.85;;;22.70;72.80;;;;;;6216696;28;84363;-61
2021/12/01 13:38:36;;;;;;;0.85;0.80;;;22.70;72.80;;;;;;6217285;28;82887;-60
2021/12/01 13:41:41;;;;;;;0.80;0.80;;;22.70;72.80;;;;;;6217473;28;83691;-60
2021/12/01 13:44:45;;;;;;;1.15;0.90;;;22.70;72.80;;;;;;6228088;28;84655;-60
2021/12/01 13:47:47;;;;;;;1.02;0.90;;;22.70;72.90;;;;;;6211309;28;84090;-60
2021/12/01 13:50:50;;;;;;;0.90;0.90;;;22.70;72.80;;;;;;6218974;28;85003;-60
2021/12/01 13:53:53;;;;;;;1.08;0.98;;;22.70;72.90;;;;;;6207046;28;84081;-60
2021/12/01 13:57:06;;;;;;;1.13;0.80;;;22.70;72.90;;;;;;6209191;28;82927;-60
2021/12/01 14:00:08;;;;;;;1.17;0.90;;;22.70;72.80;;;;;;6221622;28;83901;-61
2021/12/01 14:03:12;;;;;;;0.70;0.70;;;22.80;72.90;;;;;;6215073;28;83944;-60
2021/12/01 14:06:16;;;;;;;0.80;0.80;;;22.70;72.80;;;;;;6226018;28;82943;-61
2021/12/01 14:09:21;;;;;;;1.17;1.08;;;22.80;72.80;;;;;;6218963;28;84206;-60
2021/12/01 14:12:32;;;;;;;1.10;1.00;;;22.70;72.80;;;;;;6228151;28;83314;-61
2021/12/01 14:15:43;;;;;;;0.93;0.90;;;22.80;72.80;;;;;;6229528;28;84396;-60
2021/12/01 14:18:45;;;;;;;0.80;0.80;;;22.80;72.90;;;;;;6215467;28;84207;-61
2021/12/01 14:21:49;;;;;;;1.45;0.90;;;22.70;72.80;;;;;;6224594;28;84882;-61
2021/12/01 14:24:54;;;;;;;1.00;0.80;;;22.70;72.80;;;;;;6220878;28;83975;-60
2021/12/01 14:28:06;;;;;;;0.93;0.90;;;22.80;72.80;;;;;;6220026;28;84362;-60
2021/12/01 14:31:08;;;;;;;0.93;0.80;;;22.70;72.80;;;;;;6221166;28;83964;-61
2021/12/01 14:34:12;;;;;;;1.00;0.90;;;22.70;72.80;;;;;;6234950;28;84041;-60
2021/12/01 14:37:16;;;;;;;1.15;0.90;;;22.70;72.80;;;;;;6227575;28;84023;-61
2021/12/01 14:40:20;;;;;;;0.80;0.80;;;22.80;72.80;;;;;;6230170;28;83617;-60
2021/12/01 14:43:27;;;;;;;1.00;0.90;;;22.80;72.80;;;;;;6229882;28;83346;-61
2021/12/01 14:46:30;;;;;;;1.13;1.02;;;22.80;72.80;;;;;;6226086;28;83894;-60
2021/12/01 14:49:41;;;;;;;0.80;0.80;;;22.80;72.80;;;;;;6224242;28;84610;-60
2021/12/01 14:52:43;;;;;;;0.90;0.90;;;22.80;72.80;;;;;;6220721;28;85010;-60
2021/12/01 14:55:48;;;;;;;0.77;0.70;;;22.80;72.80;;;;;;6233863;28;84069;-60
2021/12/01 14:58:53;;;;;;;0.80;0.80;;;22.80;72.70;;;;;;6231250;28;84002;-60
2021/12/01 15:02:16;;;;;;;0.65;0.65;;;22.80;72.70;;;;;;6231858;28;82820;-60
2021/12/01 15:05:20;;;;;;;1.00;0.90;;;22.80;72.70;;;;;;6223058;28;84380;-60
2021/12/01 15:08:27;;;;;;;0.88;0.88;;;22.80;72.70;;;;;;6231797;28;84016;-60
2021/12/01 15:11:44;;;;;;;0.70;0.70;;;22.80;72.70;;;;;;6214619;28;84859;-60
2021/12/01 15:14:46;;;;;;;0.82;0.80;;;22.80;72.70;;;;;;6227983;28;83237;-60
2021/12/01 15:18:04;;;;;;;0.80;0.80;;;22.80;72.70;;;;;;6212306;28;83961;-61
2021/12/01 15:21:15;;;;;;;0.90;0.90;;;22.80;72.80;;;;;;6220328;28;83981;-60
2021/12/01 15:24:19;;;;;;;0.85;0.85;;;22.80;72.70;;;;;;6220652;28;85530;-60
2021/12/01 15:27:23;;;;;;;0.82;0.82;;;22.80;72.70;;;;;;6228450;28;84068;-60
2021/12/01 15:30:25;;;;;;;1.05;0.95;;;22.90;72.70;;;;;;6222852;28;84375;-60
2021/12/01 15:33:27;;;;;;;0.70;0.70;;;22.80;72.60;;;;;;6225622;28;84115;-60
2021/12/01 15:36:29;;;;;;;0.90;0.85;;;22.80;72.70;;;;;;6234198;28;82678;-60
2021/12/01 15:39:32;;;;;;;1.08;0.85;;;22.80;72.70;;;;;;6231688;28;84025;-60
2021/12/01 15:42:36;;;;;;;1.08;0.98;;;22.90;72.70;;;;;;6230872;28;82858;-60
2021/12/01 15:45:38;;;;;;;1.02;0.80;;;22.80;72.70;;;;;;6225049;28;83286;-60
2021/12/01 15:48:40;;;;;;;0.82;0.82;;;22.80;72.70;;;;;;6212692;28;84591;-61
2021/12/01 15:51:43;;;;;;;0.80;0.80;;;22.80;72.70;;;;;;6223484;28;83098;-60
2021/12/01 15:54:45;;;;;;;0.80;0.80;;;22.80;72.70;;;;;;6218016;28;85073;-60
2021/12/01 15:57:49;;;;;;;1.10;0.88;;;22.90;72.80;;;;;;6225074;28;84223;-60
2021/12/01 16:00:54;;;;;;;0.70;0.70;;;22.90;72.70;;;;;;6220101;28;84051;-60
2021/12/01 16:03:56;;;;;;;0.60;0.60;;;22.80;72.70;;;;;;6222816;28;84087;-60
2021/12/01 16:06:58;;;;;;;0.70;0.70;;;22.80;72.70;;;;;;6217535;28;82854;-60
2021/12/01 16:10:00;;;;;;;0.80;0.80;;;22.90;72.70;;;;;;6231362;28;84334;-61